Time;durP1;ratioP1;P1;durP2;ratioP2;P2;SDS_P1;SDS_P2;PMS_P1;PMS_P2;Temp;Humidity;BMP_temperature;BMP_pressure;BME280_temperature;BME280_humidity;BME280_pressure;Samples;Min_cycle;Max_cycle;Signal;HPM_P1;HPM_P2
2023/03/25 00:04:04;;;;;;;8.50;5.32;;;;;;;19.71;53.36;95975.34;10318440;28;20055;-77
2023/03/25 00:09:23;;;;;;;6.97;4.57;;;;;;;19.70;53.23;95971.88;10331615;28;20054;-77
2023/03/25 00:14:43;;;;;;;6.97;4.43;;;;;;;19.69;53.14;95964.09;10331821;28;20046;-77
2023/03/25 00:20:10;;;;;;;7.22;4.53;;;;;;;19.70;53.00;95971.09;10331856;28;20053;-77
2023/03/25 00:25:31;;;;;;;7.10;4.60;;;;;;;19.69;53.04;95964.09;10331427;28;20093;-76
2023/03/25 00:30:52;;;;;;;6.68;4.55;;;;;;;19.67;52.90;95956.34;10318201;28;20415;-77
2023/03/25 00:36:13;;;;;;;6.80;4.38;;;;;;;19.67;52.94;95950.94;10317878;28;20046;-77
2023/03/25 00:41:34;;;;;;;6.00;3.83;;;;;;;19.67;52.87;95963.66;10331215;28;20038;-77
2023/03/25 00:46:54;;;;;;;6.10;4.10;;;;;;;19.65;52.77;95953.19;10317652;28;20046;-77
2023/03/25 00:52:14;;;;;;;5.15;4.03;;;;;;;19.65;52.76;95949.72;10317574;28;20450;-77
2023/03/25 00:57:34;;;;;;;5.38;3.88;;;;;;;19.64;52.79;95959.75;10331092;28;20054;-77
2023/03/25 01:02:54;;;;;;;5.95;3.83;;;;;;;19.64;52.56;95961.63;10333155;28;20038;-77
2023/03/25 01:08:16;;;;;;;6.60;3.90;;;;;;;19.63;52.70;95960.09;10324250;28;20049;-77
2023/03/25 01:13:36;;;;;;;5.10;3.75;;;;;;;19.62;52.71;95953.09;10337947;28;20324;-77
2023/03/25 01:18:55;;;;;;;4.75;3.60;;;;;;;19.60;52.57;95958.88;10338755;28;20053;-77
2023/03/25 01:24:14;;;;;;;6.70;4.07;;;;;;;19.59;52.46;95962.69;10323648;28;20407;-77
2023/03/25 01:29:34;;;;;;;6.40;4.10;;;;;;;19.59;52.47;95956.50;10325404;28;20047;-77
2023/03/25 01:34:54;;;;;;;5.28;3.83;;;;;;;19.59;52.54;95948.41;10351663;28;20471;-77
2023/03/25 01:40:19;;;;;;;5.78;4.07;;;;;;;19.58;52.57;95950.28;10336946;28;20121;-77
2023/03/25 01:45:39;;;;;;;6.03;3.53;;;;;;;19.58;52.54;95944.88;10336844;28;20046;-77
2023/03/25 01:51:02;;;;;;;4.80;3.45;;;;;;;19.55;52.42;95943.66;10322915;28;20079;-77
2023/03/25 01:56:30;;;;;;;4.55;3.28;;;;;;;19.55;52.32;95940.19;10309322;28;20050;-77
2023/03/25 02:01:52;;;;;;;5.78;3.40;;;;;;;19.54;52.34;95936.72;10322923;28;20042;-74
2023/03/25 02:07:15;;;;;;;5.53;3.30;;;;;;;19.53;52.43;95924.31;10322551;28;20053;-75
2023/03/25 02:12:35;;;;;;;5.13;3.53;;;;;;;19.53;52.41;95927.03;10322059;28;20054;-74
2023/03/25 02:18:20;;;;;;;4.55;3.30;;;;;;;19.52;52.41;95920.06;10335446;28;20054;-74
2023/03/25 02:23:56;;;;;;;5.32;3.25;;;;;;;19.52;52.37;95932.75;10335222;28;20038;-74
2023/03/25 02:29:54;;;;;;;4.28;3.15;;;;;;;19.50;52.55;95919.63;10323806;28;20061;-74
2023/03/25 02:35:16;;;;;;;4.75;3.50;;;;;;;19.50;52.30;95910.72;10321173;28;20062;-74
2023/03/25 02:40:44;;;;;;;4.72;3.13;;;;;;;19.49;52.29;95923.44;10349601;28;20438;-74
2023/03/25 02:46:08;;;;;;;5.05;2.95;;;;;;;19.48;52.13;95919.19;10334269;28;20049;-74
2023/03/25 02:51:31;;;;;;;6.95;3.45;;;;;;;19.47;52.21;95914.13;10320657;28;20112;-74
2023/03/25 02:56:56;;;;;;;5.05;3.10;;;;;;;19.48;52.26;95911.06;10293214;28;20045;-74
2023/03/25 03:02:18;;;;;;;3.85;3.10;;;;;;;19.46;52.43;95894.41;10320890;28;20042;-74
2023/03/25 03:07:40;;;;;;;2.88;2.58;;;;;;;19.46;52.19;95893.63;10306417;28;20052;-74
2023/03/25 03:13:15;;;;;;;4.13;3.38;;;;;;;19.45;52.11;95886.66;10319575;28;20049;-74
2023/03/25 03:18:50;;;;;;;3.83;2.72;;;;;;;19.43;52.14;95881.59;10319613;28;20042;-74
2023/03/25 03:24:26;;;;;;;4.07;2.90;;;;;;;19.43;52.12;95876.19;10319400;28;20046;-75
2023/03/25 03:29:53;;;;;;;3.60;2.70;;;;;;;19.43;52.37;95880.81;10320320;28;20050;-74
2023/03/25 03:35:19;;;;;;;4.05;2.75;;;;;;;19.41;52.06;95900.06;10318984;28;20050;-74
2023/03/25 03:40:40;;;;;;;4.60;2.90;;;;;;;19.40;52.16;95895.78;10332677;28;20506;-74
2023/03/25 03:46:05;;;;;;;3.05;2.60;;;;;;;19.41;51.99;95899.28;10332282;28;20050;-74
2023/03/25 03:51:24;;;;;;;3.28;2.78;;;;;;;19.39;52.03;95898.84;10318607;28;20383;-74
2023/03/25 03:57:00;;;;;;;3.67;2.80;;;;;;;19.38;52.17;95906.16;10346878;28;20054;-74
2023/03/25 04:02:27;;;;;;;3.45;2.50;;;;;;;19.39;51.99;95913.13;10332044;28;20510;-74
2023/03/25 04:08:01;;;;;;;3.00;2.47;;;;;;;19.37;52.19;95918.09;10318364;28;20042;-74
2023/03/25 04:13:22;;;;;;;3.53;2.70;;;;;;;19.37;51.94;95915.41;10331942;28;20038;-74
2023/03/25 04:18:42;;;;;;;3.28;2.47;;;;;;;19.35;52.09;95918.44;10318313;28;20057;-74
2023/03/25 04:24:03;;;;;;;3.13;2.47;;;;;;;19.34;51.87;95913.38;10317931;28;20097;-74
2023/03/25 04:29:24;;;;;;;3.08;2.50;;;;;;;19.33;51.94;95903.72;10335033;28;20054;-74
2023/03/25 04:34:45;;;;;;;3.95;2.60;;;;;;;19.32;51.93;95905.59;10332428;28;20053;-74
2023/03/25 04:40:07;;;;;;;3.70;2.65;;;;;;;19.32;51.85;95907.53;10324286;28;20053;-74
2023/03/25 04:45:27;;;;;;;2.95;2.15;;;;;;;19.32;51.97;95911.00;10325530;28;20105;-74
2023/03/25 04:50:47;;;;;;;3.25;2.47;;;;;;;19.31;51.89;95900.56;10339008;28;20055;-75
2023/03/25 04:56:14;;;;;;;2.88;2.50;;;;;;;19.31;51.91;95911.38;10325085;28;20419;-74
2023/03/25 05:01:36;;;;;;;2.85;2.40;;;;;;;19.30;51.84;95915.19;10339023;28;20053;-74
2023/03/25 05:06:56;;;;;;;3.25;2.53;;;;;;;19.29;51.86;95913.63;10338189;28;20049;-74
2023/03/25 05:12:16;;;;;;;2.95;2.20;;;;;;;19.28;51.84;95923.63;10338568;28;20045;-74
2023/03/25 05:17:35;;;;;;;2.70;2.20;;;;;;;19.27;51.87;95932.09;10337831;28;20053;-74
2023/03/25 05:22:56;;;;;;;3.00;2.50;;;;;;;19.27;51.84;95930.16;10337603;28;20049;-74
2023/03/25 05:28:16;;;;;;;2.33;2.08;;;;;;;19.26;51.89;95931.28;10341567;28;20054;-74
2023/03/25 05:33:43;;;;;;;2.35;2.15;;;;;;;19.26;51.77;95938.59;10337035;28;20435;-74
2023/03/25 05:39:04;;;;;;;2.50;2.28;;;;;;;19.26;51.90;95952.09;10324490;28;20042;-74
2023/03/25 05:44:25;;;;;;;2.95;2.30;;;;;;;19.24;51.90;95955.16;10323198;28;20046;-75
2023/03/25 05:49:45;;;;;;;3.08;2.10;;;;;;;19.25;51.85;95953.22;10350718;28;20050;-74
2023/03/25 05:55:05;;;;;;;2.58;2.08;;;;;;;19.24;51.87;95957.84;10322937;28;20081;-74
2023/03/25 06:00:24;;;;;;;3.40;2.30;;;;;;;19.24;51.91;95962.47;10336245;28;20101;-74
2023/03/25 06:05:44;;;;;;;2.47;1.92;;;;;;;19.24;51.95;95973.28;10335925;28;20100;-74
2023/03/25 06:11:03;;;;;;;10.90;6.93;;;;;;;19.22;52.13;95964.72;10322217;28;20042;-74
2023/03/25 06:16:28;;;;;;;12.70;8.68;;;;;;;19.22;52.36;95973.59;10335711;28;20046;-74
2023/03/25 06:21:48;;;;;;;13.45;8.38;;;;;;;19.23;52.47;95974.38;10322572;28;20044;-74
2023/03/25 06:27:13;;;;;;;11.52;8.63;;;;;;;19.23;52.40;95966.28;10330246;28;20058;-74
2023/03/25 06:32:32;;;;;;;12.20;8.57;;;;;;;19.22;52.55;95972.81;10321431;28;20101;-74
2023/03/25 06:37:51;;;;;;;10.95;8.20;;;;;;;19.22;52.69;95986.31;10321709;28;20046;-74
2023/03/25 06:43:20;;;;;;;10.10;7.55;;;;;;;19.22;52.67;95984.41;10322246;28;20042;-74
2023/03/25 06:49:00;;;;;;;11.18;7.85;;;;;;;19.22;52.74;95984.41;10323643;28;20038;-74
2023/03/25 06:54:21;;;;;;;11.77;8.38;;;;;;;19.22;52.48;95978.22;10320474;28;20051;-73
2023/03/25 06:59:41;;;;;;;9.05;6.78;;;;;;;19.21;52.20;95984.75;10333710;28;20054;-74
2023/03/25 07:05:00;;;;;;;8.73;5.43;;;;;;;19.22;51.41;96007.94;10319980;28;20069;-74
2023/03/25 07:10:19;;;;;;;7.18;5.32;;;;;;;19.22;50.93;95999.81;10333598;28;20380;-74
2023/03/25 07:15:39;;;;;;;5.95;4.60;;;;;;;19.21;50.53;95993.66;10333596;28;20094;-74
2023/03/25 07:20:59;;;;;;;9.68;4.88;;;;;;;19.22;50.23;95984.41;10319628;28;20046;-74
2023/03/25 07:26:19;;;;;;;6.80;4.30;;;;;;;19.24;50.14;95981.38;10329967;28;20499;-74
2023/03/25 07:31:39;;;;;;;5.13;3.63;;;;;;;19.24;49.81;95987.56;10333058;28;20503;-77
2023/03/25 07:36:59;;;;;;;6.18;3.30;;;;;;;19.26;49.51;95984.50;10319345;28;20057;-76
2023/03/25 07:42:19;;;;;;;5.32;3.28;;;;;;;19.28;49.36;95984.97;10347013;28;20540;-73
2023/03/25 07:48:13;;;;;;;4.65;3.15;;;;;;;19.29;49.28;95981.16;10301176;28;20062;-73
2023/03/25 07:53:33;;;;;;;4.00;3.03;;;;;;;19.31;49.11;95993.16;10332305;28;20042;-73
2023/03/25 07:58:53;;;;;;;4.35;3.05;;;;;;;19.34;48.99;96014.06;10318686;28;20042;-73
2023/03/25 08:04:12;;;;;;;4.50;2.67;;;;;;;19.35;48.99;96010.25;10318626;28;20050;-74
2023/03/25 08:09:32;;;;;;;5.20;2.78;;;;;;;19.39;48.91;96015.78;10347109;28;20046;-74
2023/03/25 08:14:52;;;;;;;3.38;2.72;;;;;;;19.41;48.87;96010.81;10325611;28;20046;-74
2023/03/25 08:20:12;;;;;;;4.50;2.75;;;;;;;19.44;48.78;96001.22;10326490;28;20050;-74
2023/03/25 08:25:31;;;;;;;2.90;2.40;;;;;;;19.46;48.57;96010.56;10338863;28;20487;-74
2023/03/25 08:30:55;;;;;;;4.82;2.83;;;;;;;19.48;48.82;95992.13;10325903;28;20042;-74
2023/03/25 08:36:18;;;;;;;14.80;2.65;;;;;;;19.52;48.84;95995.69;10339757;28;20046;-75
2023/03/25 08:41:38;;;;;;;3.50;2.40;;;;;;;19.56;48.79;95990.38;10339811;28;20089;-75
2023/03/25 08:46:58;;;;;;;3.55;2.40;;;;;;;19.59;48.75;95988.91;10339232;28;20053;-74
2023/03/25 08:52:17;;;;;;;4.00;2.28;;;;;;;19.61;48.80;95990.13;10325249;28;20038;-74
2023/03/25 08:57:36;;;;;;;3.70;2.40;;;;;;;19.63;48.79;96014.91;10338755;28;20046;-74
2023/03/25 09:02:57;;;;;;;3.30;2.30;;;;;;;19.67;48.85;96018.47;10338840;28;20042;-74
2023/03/25 09:08:17;;;;;;;4.40;2.28;;;;;;;19.70;48.95;96019.72;10353362;28;20046;-74
2023/03/25 09:13:36;;;;;;;3.55;1.88;;;;;;;19.73;49.11;96017.13;10339091;28;20418;-74
2023/03/25 09:18:56;;;;;;;3.78;2.40;;;;;;;19.76;49.20;96018.38;10338029;28;20054;-74
2023/03/25 09:24:16;;;;;;;2.70;1.80;;;;;;;19.79;49.41;96017.69;10336714;28;20047;-74
2023/03/25 09:29:35;;;;;;;2.50;1.80;;;;;;;19.83;49.39;96037.47;10339900;28;20446;-73
2023/03/25 09:34:55;;;;;;;2.63;1.85;;;;;;;19.87;49.29;96035.66;10351607;28;20039;-74
2023/03/25 09:40:15;;;;;;;4.25;2.00;;;;;;;19.89;49.19;96024.50;10322620;28;20113;-75
2023/03/25 09:45:46;;;;;;;6.38;1.63;;;;;;;19.92;49.18;96024.59;10337562;28;20039;-76
2023/03/25 09:51:26;;;;;;;5.00;2.13;;;;;;;19.94;49.09;96030.47;10323025;28;20046;-76
2023/03/25 09:56:47;;;;;;;2.08;1.55;;;;;;;19.99;49.19;96023.22;10322888;28;20046;-75
2023/03/25 10:02:17;;;;;;;2.72;1.20;;;;;;;20.01;46.10;96018.25;10336063;28;20130;-77
2023/03/25 10:07:46;;;;;;;2.05;0.80;;;;;;;19.91;39.49;96024.94;10322246;28;20048;-77
2023/03/25 10:13:15;;;;;;;1.45;0.75;;;;;;;19.83;39.99;95996.16;10350553;28;20049;-77
2023/03/25 10:18:55;;;;;;;2.38;0.80;;;;;;;19.88;41.45;96010.22;10335518;28;20050;-77
2023/03/25 10:24:38;;;;;;;5.18;1.80;;;;;;;19.95;43.48;95999.59;10349822;28;20042;-76
2023/03/25 10:30:08;;;;;;;29.13;18.92;;;;;;;20.00;44.01;96000.47;10282748;28;20054;-77
2023/03/25 10:35:33;;;;;;;28.65;22.63;;;;;;;20.04;44.59;96002.13;10307123;28;20500;-77
2023/03/25 10:41:10;;;;;;;18.38;10.73;;;;;;;20.07;45.22;96000.66;10294370;28;20411;-77
2023/03/25 10:46:45;;;;;;;13.00;8.45;;;;;;;20.10;45.29;95999.97;10281104;28;20098;-78
2023/03/25 10:52:05;;;;;;;9.43;6.53;;;;;;;20.12;45.79;95992.28;10281245;28;20455;-77
2023/03/25 10:57:28;;;;;;;7.53;5.40;;;;;;;20.15;46.42;95981.56;10293810;28;20062;-76
2023/03/25 11:02:49;;;;;;;9.20;4.93;;;;;;;20.20;46.64;95987.84;10307183;28;20097;-76
2023/03/25 11:08:08;;;;;;;5.63;3.90;;;;;;;20.22;46.74;95978.25;10306950;28;20049;-78
2023/03/25 11:13:29;;;;;;;5.75;1.98;;;;;;;20.21;42.47;95967.78;10293400;28;20043;-78
2023/03/25 11:18:50;;;;;;;2.35;1.60;;;;;;;20.18;40.76;95958.44;10279827;28;20050;-78
2023/03/25 11:24:13;;;;;;;2.67;1.58;;;;;;;20.20;43.18;95950.00;10292976;28;20069;-79
2023/03/25 11:29:35;;;;;;;3.50;2.60;;;;;;;20.23;45.79;95941.97;10279649;28;20055;-78
2023/03/25 11:34:54;;;;;;;8.13;2.40;;;;;;;20.26;47.18;95933.16;10306490;28;20046;-78
2023/03/25 11:40:16;;;;;;;3.53;2.00;;;;;;;20.27;47.42;95945.53;10306256;28;20053;-74
2023/03/25 11:45:44;;;;;;;3.97;1.67;;;;;;;20.30;47.38;95933.22;10278256;28;20066;-74
2023/03/25 11:51:07;;;;;;;2.78;1.63;;;;;;;20.31;47.42;95956.47;10305505;28;20043;-74
2023/03/25 11:56:36;;;;;;;4.10;1.88;;;;;;;20.32;46.52;95939.06;10292532;28;20051;-73
2023/03/25 12:02:01;;;;;;;2.88;1.70;;;;;;;20.33;46.98;95921.72;10305563;28;20081;-73
2023/03/25 12:07:23;;;;;;;4.22;1.58;;;;;;;20.34;46.93;95924.06;10305117;28;20042;-74
2023/03/25 12:12:54;;;;;;;4.80;1.40;;;;;;;20.34;47.11;95917.88;10305274;28;20492;-78
2023/03/25 12:18:25;;;;;;;2.08;1.23;;;;;;;20.35;46.85;95924.88;10291713;28;20046;-74
2023/03/25 12:23:47;;;;;;;1.63;1.08;;;;;;;20.35;46.82;95917.53;10305178;28;20050;-74
2023/03/25 12:29:06;;;;;;;5.32;1.45;;;;;;;20.37;46.93;95905.59;10326256;28;20047;-74
2023/03/25 12:35:04;;;;;;;1.50;1.20;;;;;;;20.37;46.76;95894.78;10331329;28;20049;-74
2023/03/25 12:40:44;;;;;;;4.37;1.30;;;;;;;20.36;47.10;95893.97;10305064;28;20537;-74
2023/03/25 12:46:25;;;;;;;2.38;1.00;;;;;;;20.37;47.17;95882.03;10317612;28;20073;-74
2023/03/25 12:51:55;;;;;;;3.13;1.10;;;;;;;20.37;47.25;95873.13;10331053;28;20101;-74
2023/03/25 12:57:44;;;;;;;1.70;0.98;;;;;;;20.38;47.15;95869.28;10332239;28;20105;-74
2023/03/25 13:03:37;;;;;;;1.95;0.90;;;;;;;20.38;47.11;95844.94;10323242;28;20482;-74
2023/03/25 13:09:10;;;;;;;3.15;1.00;;;;;;;20.39;47.21;95843.81;10352831;28;20038;-74
2023/03/25 13:14:38;;;;;;;1.40;1.00;;;;;;;20.38;47.29;95847.63;10338036;28;20096;-73
2023/03/25 13:19:59;;;;;;;2.83;1.00;;;;;;;20.40;47.82;95842.66;10324616;28;20050;-73
2023/03/25 13:25:30;;;;;;;2.65;0.90;;;;;;;20.40;48.13;95843.44;10324429;28;20046;-74
2023/03/25 13:30:49;;;;;;;2.38;0.90;;;;;;;20.40;47.92;95834.53;10310505;28;20053;-74
2023/03/25 13:36:30;;;;;;;3.53;1.10;;;;;;;20.40;47.95;95827.19;10323792;28;20100;-74
2023/03/25 13:42:02;;;;;;;2.95;0.88;;;;;;;20.41;47.73;95833.41;10337354;28;20049;-74
2023/03/25 13:47:30;;;;;;;1.40;0.98;;;;;;;20.41;47.69;95812.56;10323062;28;20050;-74
2023/03/25 13:52:55;;;;;;;1.98;0.93;;;;;;;20.40;47.58;95813.69;10323010;28;20046;-73
2023/03/25 13:58:21;;;;;;;1.30;0.80;;;;;;;20.41;47.45;95819.88;10336463;28;20053;-74
2023/03/25 14:04:25;;;;;;;1.50;1.00;;;;;;;20.40;47.40;95827.19;10336000;28;20038;-73
2023/03/25 14:09:56;;;;;;;1.90;1.00;;;;;;;20.39;44.02;95832.97;10335492;28;20415;-74
2023/03/25 14:15:28;;;;;;;3.53;0.98;;;;;;;20.33;43.12;95816.25;10350440;28;20049;-74
2023/03/25 14:20:49;;;;;;;4.35;1.10;;;;;;;20.32;44.77;95812.72;10335226;28;20049;-74
2023/03/25 14:26:09;;;;;;;4.22;0.82;;;;;;;20.33;44.81;95833.25;10332175;28;20117;-74
2023/03/25 14:31:31;;;;;;;3.13;0.93;;;;;;;20.33;45.29;95832.47;10321449;28;20056;-74
2023/03/25 14:36:54;;;;;;;6.07;1.20;;;;;;;20.32;45.49;95831.66;10349411;28;20491;-74
2023/03/25 14:42:29;;;;;;;3.03;1.02;;;;;;;20.33;45.84;95867.63;10334627;28;20056;-74
2023/03/25 14:47:51;;;;;;;2.72;1.00;;;;;;;20.33;46.29;95922.50;10334523;28;20038;-74
2023/03/25 14:53:12;;;;;;;4.68;1.30;;;;;;;20.32;46.53;95926.34;10334197;28;20042;-73
2023/03/25 14:58:32;;;;;;;3.75;0.90;;;;;;;20.32;46.96;95914.75;10320401;28;20049;-73
2023/03/25 15:04:11;;;;;;;1.35;0.60;;;;;;;20.31;47.37;95941.00;10306571;28;20042;-72
2023/03/25 15:09:31;;;;;;;4.75;1.00;;;;;;;20.31;47.66;95935.59;10320017;28;20042;-74
2023/03/25 15:14:55;;;;;;;4.43;0.90;;;;;;;20.31;48.08;95937.53;10306574;28;20050;-74
2023/03/25 15:20:21;;;;;;;2.15;0.82;;;;;;;20.30;48.30;95917.78;10319364;28;20042;-73
2023/03/25 15:25:42;;;;;;;4.00;0.90;;;;;;;20.30;48.49;95901.56;10346275;28;20054;-73
2023/03/25 15:31:26;;;;;;;4.38;0.90;;;;;;;20.29;48.61;95900.00;10347433;28;20034;-73
2023/03/25 15:37:19;;;;;;;3.35;1.00;;;;;;;20.30;48.85;95896.16;10306230;28;20104;-73
2023/03/25 15:43:15;;;;;;;3.45;0.90;;;;;;;20.31;48.79;95913.19;10333236;28;20161;-73
2023/03/25 15:48:47;;;;;;;3.45;0.70;;;;;;;20.31;49.03;95907.78;10285135;28;20050;-73
2023/03/25 15:54:20;;;;;;;2.28;0.90;;;;;;;20.28;48.93;95914.66;10332805;28;20490;-74
2023/03/25 15:59:49;;;;;;;2.72;0.75;;;;;;;20.29;49.15;95918.94;10319125;28;20050;-73
2023/03/25 16:05:14;;;;;;;1.58;0.73;;;;;;;20.29;49.38;95920.88;10332060;28;20045;-73
2023/03/25 16:10:40;;;;;;;1.63;0.98;;;;;;;20.31;49.61;95929.41;10318311;28;20050;-74
2023/03/25 16:16:00;;;;;;;2.83;0.70;;;;;;;20.31;49.77;95934.81;10319599;28;20097;-73
2023/03/25 16:21:20;;;;;;;2.15;0.82;;;;;;;20.29;49.67;95934.38;10318285;28;20039;-74
2023/03/25 16:26:43;;;;;;;3.45;0.80;;;;;;;20.29;50.00;95940.56;10327184;28;20427;-74
2023/03/25 16:32:03;;;;;;;1.42;0.70;;;;;;;20.28;50.18;95946.31;10318737;28;20043;-73
2023/03/25 16:37:24;;;;;;;2.40;0.70;;;;;;;20.27;50.26;95959.06;10339181;28;20096;-74
2023/03/25 16:42:43;;;;;;;2.20;0.80;;;;;;;20.27;50.43;95961.78;10339465;28;20042;-74
2023/03/25 16:48:08;;;;;;;1.35;0.90;;;;;;;20.26;50.39;95954.00;10325233;28;20034;-76
2023/03/25 16:53:38;;;;;;;1.08;0.70;;;;;;;20.25;50.53;95964.03;10325648;28;20170;-74
2023/03/25 16:59:01;;;;;;;1.20;0.82;;;;;;;20.26;50.82;95954.00;10339079;28;20487;-73
2023/03/25 17:04:25;;;;;;;4.13;0.73;;;;;;;20.24;50.59;95954.34;10352936;28;20062;-73
2023/03/25 17:09:53;;;;;;;1.20;0.80;;;;;;;20.24;50.64;95962.47;10324709;28;20073;-73
2023/03/25 17:15:15;;;;;;;1.38;0.70;;;;;;;20.23;50.84;95958.19;10324854;28;20096;-73
2023/03/25 17:20:43;;;;;;;1.55;0.80;;;;;;;20.23;51.03;95958.19;10338178;28;20042;-75
2023/03/25 17:26:09;;;;;;;4.93;0.75;;;;;;;20.23;51.22;95960.09;10319502;28;20109;-73
2023/03/25 17:31:29;;;;;;;4.20;0.77;;;;;;;20.22;51.42;95962.03;10337327;28;20121;-73
2023/03/25 17:36:56;;;;;;;1.00;0.70;;;;;;;20.22;51.37;95959.31;10352278;28;20499;-73
2023/03/25 17:42:23;;;;;;;14.98;10.27;;;;;;;20.21;51.82;95963.16;10296696;28;20038;-72
2023/03/25 17:47:43;;;;;;;71.30;44.17;;;;;;;20.22;51.99;95975.53;10323024;28;20043;-73
2023/03/25 17:53:03;;;;;;;55.58;34.50;;;;;;;20.24;51.85;95975.19;10323789;28;20422;-73
2023/03/25 17:58:22;;;;;;;50.60;31.50;;;;;;;20.23;51.86;95992.56;10337146;28;20384;-73
2023/03/25 18:03:41;;;;;;;43.58;29.00;;;;;;;20.20;52.05;95991.34;10351768;28;20038;-75
2023/03/25 18:09:01;;;;;;;44.90;27.52;;;;;;;20.21;52.25;96001.03;10336321;28;20050;-75
2023/03/25 18:14:22;;;;;;;37.78;24.38;;;;;;;20.19;52.27;96002.50;10322082;28;20058;-74
2023/03/25 18:19:41;;;;;;;36.15;22.17;;;;;;;20.20;52.32;96002.16;10322514;28;20042;-74
2023/03/25 18:25:01;;;;;;;36.50;22.55;;;;;;;20.19;52.41;95997.09;10322202;28;20038;-74
2023/03/25 18:30:50;;;;;;;35.60;20.73;;;;;;;20.18;52.58;96004.41;10321913;28;20046;-74
2023/03/25 18:36:10;;;;;;;31.58;20.42;;;;;;;20.18;52.59;96004.41;10349654;28;20105;-73
2023/03/25 18:41:30;;;;;;;31.15;19.00;;;;;;;20.18;52.65;96000.94;10321940;28;20097;-77
2023/03/25 18:46:49;;;;;;;29.38;18.15;;;;;;;20.17;52.69;96000.16;10349591;28;20048;-77
2023/03/25 18:52:09;;;;;;;27.20;17.58;;;;;;;20.17;52.60;95994.75;10349275;28;20049;-77
2023/03/25 18:57:28;;;;;;;25.13;16.75;;;;;;;20.16;52.75;95998.56;10333927;28;20057;-78
2023/03/25 19:02:52;;;;;;;26.40;16.77;;;;;;;20.16;52.75;96003.97;10334707;28;20539;-80
2023/03/25 19:08:17;;;;;;;22.63;15.05;;;;;;;20.15;52.88;95999.72;10334294;28;20407;-75
2023/03/25 19:13:36;;;;;;;23.63;15.48;;;;;;;20.13;52.95;96012.78;10333591;28;20038;-77
2023/03/25 19:18:56;;;;;;;23.60;15.50;;;;;;;20.13;53.10;96010.06;10320331;28;20057;-78
2023/03/25 19:24:16;;;;;;;23.67;15.45;;;;;;;20.13;53.42;96010.06;10320298;28;20046;-75
2023/03/25 19:29:36;;;;;;;26.30;15.55;;;;;;;20.14;53.44;96017.06;10321365;28;20057;-77
2023/03/25 19:34:56;;;;;;;20.67;14.18;;;;;;;20.12;53.58;96012.00;10333195;28;20038;-76
2023/03/25 19:40:22;;;;;;;26.00;15.32;;;;;;;20.12;53.88;96016.63;10347675;28;20487;-76
2023/03/25 19:45:42;;;;;;;21.38;14.48;;;;;;;20.11;53.90;96017.75;10333009;28;20101;-79
2023/03/25 19:51:02;;;;;;;20.75;13.77;;;;;;;20.10;54.26;96022.38;10332650;28;20039;-76
2023/03/25 19:56:22;;;;;;;23.50;14.35;;;;;;;20.10;54.57;96002.66;10319215;28;20430;-79
2023/03/25 20:01:41;;;;;;;22.52;13.93;;;;;;;20.10;54.47;96011.56;10332656;28;20050;-78
2023/03/25 20:07:02;;;;;;;19.45;12.63;;;;;;;20.09;54.65;96006.50;10349227;28;20042;-76
2023/03/25 20:12:21;;;;;;;18.85;13.20;;;;;;;20.09;54.72;95998.38;10345754;28;20046;-76
2023/03/25 20:17:41;;;;;;;20.92;13.13;;;;;;;20.10;54.72;96002.66;10345552;28;20109;-80
2023/03/25 20:23:01;;;;;;;18.65;13.02;;;;;;;20.08;55.00;96003.00;10331683;28;20049;-76
2023/03/25 20:28:21;;;;;;;20.38;13.15;;;;;;;20.09;55.32;96014.59;10337332;28;20536;-77
2023/03/25 20:33:41;;;;;;;19.52;13.50;;;;;;;20.07;55.30;96006.88;10332148;28;20042;-80
2023/03/25 20:39:04;;;;;;;23.77;13.25;;;;;;;20.07;55.40;96014.16;10345578;28;20050;-79
2023/03/25 20:44:24;;;;;;;21.70;13.20;;;;;;;20.06;55.41;96018.00;10332728;28;20053;-75
2023/03/25 20:49:44;;;;;;;22.38;13.65;;;;;;;20.05;55.59;96014.53;10345112;28;20042;-74
2023/03/25 20:55:05;;;;;;;21.17;12.48;;;;;;;20.06;55.80;96018.78;10331284;28;20484;-73
2023/03/25 21:00:24;;;;;;;20.45;12.25;;;;;;;20.06;55.78;96012.59;10331421;28;20046;-73
2023/03/25 21:05:44;;;;;;;20.73;12.75;;;;;;;20.05;55.67;96002.91;10331161;28;20046;-75
2023/03/25 21:11:03;;;;;;;21.15;12.50;;;;;;;20.04;55.73;96002.13;10331400;28;20057;-75
2023/03/25 21:16:23;;;;;;;22.88;11.98;;;;;;;20.04;55.84;96004.84;10317830;28;20053;-74
2023/03/25 21:21:43;;;;;;;19.58;11.57;;;;;;;20.04;55.99;95995.94;10324932;28;20053;-74
2023/03/25 21:27:03;;;;;;;19.42;11.32;;;;;;;20.03;55.94;96010.59;10346804;28;20063;-74
2023/03/25 21:32:23;;;;;;;18.40;11.50;;;;;;;20.04;55.78;96009.47;10323858;28;20043;-74
2023/03/25 21:37:43;;;;;;;19.38;11.68;;;;;;;20.03;56.01;96002.47;10337523;28;20110;-74
2023/03/25 21:43:02;;;;;;;20.77;11.73;;;;;;;20.02;56.22;95995.50;10336866;28;20039;-74
2023/03/25 21:48:24;;;;;;;18.58;11.02;;;;;;;20.00;56.40;95989.66;10336939;28;20043;-74
2023/03/25 21:53:46;;;;;;;17.63;10.90;;;;;;;20.00;56.36;95993.16;10322953;28;20040;-74
2023/03/25 21:59:07;;;;;;;18.02;10.77;;;;;;;20.01;56.42;96002.03;10323222;28;20517;-74
2023/03/25 22:04:26;;;;;;;18.20;10.77;;;;;;;20.00;56.42;95995.06;10309173;28;20049;-74
2023/03/25 22:09:47;;;;;;;15.20;10.07;;;;;;;19.99;56.28;95985.38;10336005;28;20042;-74
2023/03/25 22:15:07;;;;;;;13.02;8.98;;;;;;;19.98;56.28;95971.09;10308873;28;20053;-74
2023/03/25 22:20:26;;;;;;;17.30;9.85;;;;;;;19.96;56.22;95967.94;10335791;28;20042;-74
2023/03/25 22:25:46;;;;;;;17.88;9.70;;;;;;;19.96;56.16;95959.84;10320920;28;20035;-74
2023/03/25 22:31:14;;;;;;;14.25;9.32;;;;;;;19.94;56.14;95952.06;10334942;28;20487;-74
2023/03/25 22:36:33;;;;;;;15.43;9.50;;;;;;;19.94;55.90;95959.41;10334813;28;20173;-73
2023/03/25 22:41:54;;;;;;;15.57;9.10;;;;;;;19.92;56.00;95954.31;10335079;28;20042;-74
2023/03/25 22:47:13;;;;;;;14.55;9.00;;;;;;;19.92;56.12;95965.13;10334231;28;20038;-73
2023/03/25 22:52:32;;;;;;;13.43;8.15;;;;;;;19.92;55.92;95958.97;10320666;28;20074;-74
2023/03/25 22:57:52;;;;;;;13.52;8.02;;;;;;;19.89;55.99;95949.59;10333974;28;20487;-74
2023/03/25 23:03:12;;;;;;;13.15;8.27;;;;;;;19.90;55.97;95947.72;10320266;28;20046;-74
2023/03/25 23:08:37;;;;;;;14.20;8.60;;;;;;;19.88;55.92;95939.16;10333737;28;20038;-73
2023/03/25 23:14:00;;;;;;;10.60;7.43;;;;;;;19.87;55.93;95937.56;10333844;28;20034;-73
2023/03/25 23:19:19;;;;;;;12.63;7.85;;;;;;;19.87;55.67;95940.28;10333351;28;20479;-73
2023/03/25 23:24:40;;;;;;;12.90;7.30;;;;;;;19.86;55.84;95941.44;10347821;28;20054;-73
2023/03/25 23:30:00;;;;;;;10.75;7.32;;;;;;;19.84;55.81;95936.34;10320815;28;20057;-73
2023/03/25 23:35:21;;;;;;;10.73;7.47;;;;;;;19.85;55.74;95939.84;10319434;28;20074;-73
2023/03/25 23:40:40;;;;;;;11.07;7.32;;;;;;;19.83;55.75;95953.69;10319099;28;20403;-73
2023/03/25 23:46:00;;;;;;;10.30;7.13;;;;;;;19.84;55.80;95949.09;10346559;28;20042;-73
2023/03/25 23:51:22;;;;;;;10.80;7.60;;;;;;;19.81;55.76;95950.56;10332535;28;20042;-73
2023/03/25 23:56:42;;;;;;;10.85;7.45;;;;;;;19.81;55.59;95966.78;10332183;28;20059;-73
